createdAt,value
2018-05-14T00:00:12.998Z,24.20
2018-05-14T00:02:42.667Z,24.50
2018-05-14T00:05:12.177Z,24.10
2018-05-14T00:07:43.030Z,24.70
2018-05-14T00:10:12.949Z,23.60
2018-05-14T00:12:42.475Z,24.70
2018-05-14T00:15:12.423Z,24.80
2018-05-14T00:17:41.978Z,25.20
2018-05-14T00:20:11.601Z,25.00
2018-05-14T00:22:42.236Z,24.40
2018-05-14T00:25:11.667Z,24.60
2018-05-14T00:27:41.229Z,26.90
2018-05-14T00:30:11.359Z,27.20
2018-05-14T00:32:40.952Z,27.20
2018-05-14T00:35:12.040Z,28.50
2018-05-14T00:37:41.367Z,27.30
2018-05-14T00:40:11.326Z,27.70
2018-05-14T00:42:40.884Z,25.40
2018-05-14T00:45:11.012Z,25.40
2018-05-14T00:47:41.049Z,26.20
2018-05-14T00:50:11.649Z,25.80
2018-05-14T00:52:41.299Z,25.30
2018-05-14T00:55:20.422Z,26.90
2018-05-14T00:57:51.615Z,27.70
2018-05-14T01:00:21.139Z,27.60
2018-05-14T01:02:50.555Z,28.00
2018-05-14T01:05:20.516Z,29.60
2018-05-14T01:07:49.994Z,30.40
2018-05-14T01:10:20.344Z,28.20
2018-05-14T01:12:49.924Z,28.10
2018-05-14T01:15:19.126Z,28.80
2018-05-14T01:17:49.547Z,27.90
2018-05-14T01:20:19.792Z,27.90
2018-05-14T01:22:50.269Z,27.20
2018-05-14T01:25:20.517Z,27.20
2018-05-14T01:27:50.754Z,28.90
2018-05-14T01:30:20.757Z,28.80
2018-05-14T01:32:51.969Z,28.90
2018-05-14T01:35:23.546Z,28.80
2018-05-14T01:37:58.716Z,29.40
2018-05-14T01:40:28.111Z,28.20
2018-05-14T01:42:57.731Z,30.30
2018-05-14T01:45:27.065Z,28.80
2018-05-14T01:47:56.530Z,30.60
2018-05-14T01:50:26.134Z,28.90
2018-05-14T01:53:08.667Z,31.40
2018-05-14T01:55:38.220Z,31.70
2018-05-14T01:58:07.603Z,31.80
2018-05-14T02:00:36.980Z,33.90
2018-05-14T02:03:06.775Z,36.60
2018-05-14T02:05:36.307Z,34.40
2018-05-14T02:08:06.115Z,37.70
2018-05-14T02:10:36.739Z,34.80
2018-05-14T02:13:06.517Z,35.40
2018-05-14T02:15:38.274Z,36.70
2018-05-14T02:18:15.471Z,36.70
2018-05-14T02:20:44.883Z,40.40
2018-05-14T02:23:15.143Z,38.20
2018-05-14T02:25:46.073Z,39.60
2018-05-14T02:28:15.747Z,39.50
2018-05-14T02:30:45.958Z,40.60
2018-05-14T02:33:16.898Z,40.40
2018-05-14T02:35:46.701Z,40.50
2018-05-14T02:38:17.481Z,39.60
2018-05-14T02:40:47.830Z,39.50
2018-05-14T02:43:17.402Z,41.60
2018-05-14T02:45:46.952Z,41.80
2018-05-14T02:48:16.416Z,41.60
2018-05-14T02:50:46.128Z,43.10
2018-05-14T02:53:15.793Z,41.80
2018-05-14T02:55:46.340Z,41.80
2018-05-14T02:58:16.650Z,42.20
2018-05-14T03:00:46.227Z,42.00
2018-05-14T03:03:15.578Z,40.40
2018-05-14T03:05:45.062Z,42.40
2018-05-14T03:08:15.791Z,41.20
2018-05-14T03:10:45.374Z,41.10
2018-05-14T03:13:14.849Z,40.50
2018-05-14T03:15:45.646Z,41.10
2018-05-14T03:18:15.884Z,40.80
2018-05-14T03:20:47.213Z,40.90
2018-05-14T03:23:18.322Z,40.80
2018-05-14T03:25:47.995Z,41.60
2018-05-14T03:28:17.577Z,41.10
2018-05-14T03:30:47.141Z,40.70
2018-05-14T03:33:16.827Z,41.30
2018-05-14T03:35:46.590Z,41.80
2018-05-14T03:38:16.371Z,42.20
2018-05-14T03:40:45.916Z,42.60
2018-05-14T03:43:15.447Z,42.70
2018-05-14T03:45:44.777Z,42.90
2018-05-14T03:48:14.510Z,43.90
2018-05-14T03:50:44.180Z,44.00
2018-05-14T03:53:13.537Z,45.20
2018-05-14T03:55:42.854Z,43.60
2018-05-14T03:58:24.362Z,43.90
2018-05-14T04:01:05.175Z,43.60
2018-05-14T04:03:45.980Z,44.50
2018-05-14T04:06:26.636Z,44.50
2018-05-14T04:09:00.660Z,44.10
2018-05-14T04:11:32.038Z,43.90
2018-05-14T04:14:02.090Z,44.60
2018-05-14T04:16:33.241Z,45.20
2018-05-14T04:19:03.398Z,45.70
2018-05-14T04:21:33.084Z,45.00
2018-05-14T04:24:02.845Z,45.30
2018-05-14T04:26:32.847Z,46.80
2018-05-14T04:29:02.884Z,47.50
2018-05-14T04:31:33.475Z,47.60
2018-05-14T04:34:04.592Z,48.70
2018-05-14T04:36:34.023Z,49.30
2018-05-14T04:39:07.986Z,50.10
2018-05-14T04:41:39.109Z,49.90
2018-05-14T04:44:09.505Z,50.60
2018-05-14T04:46:41.294Z,50.20
2018-05-14T04:49:10.848Z,50.30
2018-05-14T04:51:40.349Z,49.90
2018-05-14T04:54:09.926Z,49.60
2018-05-14T04:56:39.275Z,50.30
2018-05-14T04:59:12.570Z,49.50
2018-05-14T05:01:44.701Z,49.60
2018-05-14T05:04:15.312Z,49.60
2018-05-14T05:06:45.306Z,50.00
2018-05-14T05:09:15.088Z,50.00
2018-05-14T05:11:47.499Z,50.10
2018-05-14T05:14:17.475Z,50.00
2018-05-14T05:16:48.404Z,49.60
2018-05-14T05:19:17.746Z,50.10
2018-05-14T05:21:47.495Z,50.70
2018-05-14T05:24:18.860Z,51.60
2018-05-14T05:26:48.687Z,52.20
2018-05-14T05:29:18.323Z,53.80
2018-05-14T05:31:48.231Z,53.80
2018-05-14T05:34:17.855Z,52.30
2018-05-14T05:36:47.345Z,53.50
2018-05-14T05:39:17.058Z,53.80
2018-05-14T05:41:46.751Z,52.60
2018-05-14T05:44:16.667Z,52.70
2018-05-14T05:46:46.809Z,52.70
2018-05-14T05:49:16.421Z,52.60
2018-05-14T05:51:45.817Z,55.80
2018-05-14T05:54:15.215Z,55.90
2018-05-14T05:56:44.827Z,56.00
2018-05-14T05:59:14.747Z,55.60
2018-05-14T06:01:43.992Z,53.70
2018-05-14T06:04:13.360Z,53.90
2018-05-14T06:06:43.116Z,54.50
2018-05-14T06:09:14.797Z,54.10
2018-05-14T06:11:44.399Z,54.00
2018-05-14T06:14:14.011Z,53.30
2018-05-14T06:16:44.437Z,53.50
2018-05-14T06:19:15.052Z,53.10
2018-05-14T06:21:44.595Z,53.60
2018-05-14T06:24:14.064Z,55.20
2018-05-14T06:26:44.689Z,53.80
2018-05-14T06:29:14.534Z,53.80
2018-05-14T06:31:44.027Z,53.70
2018-05-14T06:34:13.838Z,52.60
2018-05-14T06:36:43.605Z,52.30
2018-05-14T06:39:13.462Z,52.00
2018-05-14T06:41:42.903Z,52.30
2018-05-14T06:44:12.479Z,52.80
2018-05-14T06:46:42.051Z,54.50
2018-05-14T06:49:11.802Z,54.60
2018-05-14T06:51:41.287Z,55.80
2018-05-14T06:54:11.800Z,54.10
2018-05-14T06:56:51.788Z,54.70
2018-05-14T06:59:21.354Z,54.20
2018-05-14T07:01:52.116Z,54.90
2018-05-14T07:04:22.859Z,55.50
2018-05-14T07:06:52.244Z,56.20
2018-05-14T07:09:21.852Z,56.00
2018-05-14T07:11:51.694Z,55.40
2018-05-14T07:14:21.275Z,55.20
2018-05-14T07:16:51.897Z,55.70
2018-05-14T07:19:22.065Z,55.70
2018-05-14T07:21:51.813Z,55.30
2018-05-14T07:24:21.127Z,55.70
2018-05-14T07:26:50.769Z,57.00
2018-05-14T07:29:20.344Z,57.50
2018-05-14T07:31:49.948Z,57.00
2018-05-14T07:34:20.941Z,55.30
2018-05-14T07:36:50.478Z,55.30
2018-05-14T07:39:20.229Z,55.20
2018-05-14T07:41:49.737Z,54.50
2018-05-14T07:44:19.082Z,54.10
2018-05-14T07:46:48.497Z,54.10
2018-05-14T07:49:18.066Z,54.50
2018-05-14T07:51:47.213Z,55.60
2018-05-14T07:54:16.513Z,58.40
2018-05-14T07:56:46.925Z,58.60
2018-05-14T07:59:16.852Z,58.60
2018-05-14T08:01:46.424Z,58.00
2018-05-14T08:04:17.287Z,57.00
2018-05-14T08:06:46.815Z,56.80
2018-05-14T08:09:16.366Z,58.20
2018-05-14T08:11:45.951Z,58.50
2018-05-14T08:14:15.304Z,58.70
2018-05-14T08:16:47.190Z,58.00
2018-05-14T08:19:16.567Z,58.00
2018-05-14T08:21:46.085Z,57.80
2018-05-14T08:24:15.481Z,59.00
2018-05-14T08:26:45.363Z,57.90
2018-05-14T08:29:14.893Z,58.00
2018-05-14T08:31:44.421Z,57.10
2018-05-14T08:34:14.100Z,56.60
2018-05-14T08:36:43.722Z,56.90
2018-05-14T08:39:13.901Z,57.60
2018-05-14T08:41:43.568Z,59.20
2018-05-14T08:44:13.293Z,60.50
2018-05-14T08:46:43.928Z,61.00
2018-05-14T08:49:13.656Z,61.00
2018-05-14T08:51:43.149Z,59.80
2018-05-14T08:54:13.059Z,58.30
2018-05-14T08:56:42.828Z,59.20
2018-05-14T08:59:13.760Z,60.80
2018-05-14T09:01:43.407Z,61.40
2018-05-14T09:04:13.407Z,62.10
2018-05-14T09:06:43.037Z,61.00
2018-05-14T09:09:12.771Z,61.10
2018-05-14T09:11:45.403Z,60.70
2018-05-14T09:14:15.094Z,61.20
2018-05-14T09:16:44.584Z,62.20
2018-05-14T09:19:14.083Z,63.30
2018-05-14T09:21:44.928Z,64.00
2018-05-14T09:24:15.339Z,62.90
2018-05-14T09:26:45.209Z,63.20
2018-05-14T09:29:16.198Z,62.10
2018-05-14T09:31:45.546Z,62.00
2018-05-14T09:34:16.259Z,63.40
2018-05-14T09:36:46.996Z,64.00
2018-05-14T09:39:18.177Z,64.30
2018-05-14T09:41:48.167Z,64.20
2018-05-14T09:44:17.944Z,64.10
2018-05-14T09:46:47.370Z,64.50
2018-05-14T09:49:16.802Z,64.10
2018-05-14T09:51:46.078Z,63.60
2018-05-14T09:54:15.634Z,63.20
2018-05-14T09:56:46.104Z,64.00
2018-05-14T09:59:16.304Z,63.90
2018-05-14T10:01:46.121Z,63.00
2018-05-14T10:04:15.733Z,63.60
2018-05-14T10:06:45.694Z,64.80
2018-05-14T10:09:16.120Z,64.80
2018-05-14T10:11:45.628Z,64.80
2018-05-14T10:14:15.368Z,64.90
2018-05-14T10:16:44.814Z,65.60
2018-05-14T10:19:14.100Z,66.70
2018-05-14T10:21:43.930Z,66.30
2018-05-14T10:24:13.405Z,65.90
2018-05-14T10:26:42.967Z,64.20
2018-05-14T10:29:12.542Z,65.80
2018-05-14T10:31:42.401Z,66.90
2018-05-14T10:34:12.246Z,67.70
2018-05-14T10:36:42.015Z,67.40
2018-05-14T10:39:11.664Z,67.30
2018-05-14T10:41:41.362Z,66.90
2018-05-14T10:44:10.824Z,66.20
2018-05-14T10:46:40.068Z,65.00
2018-05-14T10:49:09.445Z,66.40
2018-05-14T10:51:39.111Z,66.30
2018-05-14T10:54:08.721Z,66.80
2018-05-14T10:56:38.325Z,66.90
2018-05-14T10:59:08.789Z,67.00
2018-05-14T11:01:38.369Z,66.60
2018-05-14T11:04:08.251Z,65.90
2018-05-14T11:06:37.659Z,66.30
2018-05-14T11:09:07.988Z,66.20
2018-05-14T11:11:37.375Z,65.80
2018-05-14T11:14:07.080Z,65.90
2018-05-14T11:16:37.409Z,66.50
2018-05-14T11:19:06.923Z,66.80
2018-05-14T11:21:36.852Z,67.60
2018-05-14T11:24:06.550Z,67.60
2018-05-14T11:26:37.079Z,68.10
2018-05-14T11:29:07.376Z,68.20
2018-05-14T11:31:36.921Z,68.90
2018-05-14T11:34:06.598Z,68.90
2018-05-14T11:36:37.060Z,69.50
2018-05-14T11:39:06.870Z,69.10
2018-05-14T11:41:36.563Z,69.70
2018-05-14T11:44:06.031Z,69.30
2018-05-14T11:46:35.817Z,69.30
2018-05-14T11:49:06.323Z,69.10
2018-05-14T11:51:35.800Z,70.10
2018-05-14T11:54:05.419Z,69.70
2018-05-14T11:56:35.156Z,69.50
2018-05-14T11:59:06.055Z,69.60
2018-05-14T12:01:36.125Z,68.10
2018-05-14T12:04:05.529Z,69.50
2018-05-14T12:06:35.695Z,69.20
2018-05-14T12:09:05.428Z,69.10
2018-05-14T12:11:34.935Z,69.20
2018-05-14T12:14:04.323Z,69.10
2018-05-14T12:16:34.917Z,68.30
2018-05-14T12:19:04.317Z,69.10
2018-05-14T12:21:34.395Z,70.10
2018-05-14T12:24:04.841Z,69.60
2018-05-14T12:26:35.636Z,70.00
2018-05-14T12:29:05.174Z,69.90
2018-05-14T12:31:35.765Z,69.70
2018-05-14T12:34:05.579Z,69.50
2018-05-14T12:36:34.920Z,68.30
2018-05-14T12:39:06.854Z,67.90
2018-05-14T12:41:36.162Z,68.00
2018-05-14T12:44:05.692Z,66.00
2018-05-14T12:46:35.572Z,66.00
2018-05-14T12:49:05.096Z,66.00
2018-05-14T12:51:36.449Z,66.50
2018-05-14T12:54:05.822Z,66.90
2018-05-14T12:56:35.437Z,67.30
2018-05-14T12:59:06.198Z,68.40
2018-05-14T13:01:35.985Z,67.60
2018-05-14T13:04:05.458Z,69.20
2018-05-14T13:06:35.104Z,69.50
2018-05-14T13:09:05.221Z,70.50
2018-05-14T13:11:38.420Z,70.50
2018-05-14T13:14:07.885Z,70.00
2018-05-14T13:16:38.037Z,69.60
2018-05-14T13:19:07.603Z,68.10
2018-05-14T13:21:38.916Z,68.40
2018-05-14T13:24:08.432Z,68.40
2018-05-14T13:26:37.759Z,69.20
2018-05-14T13:29:07.423Z,69.30
2018-05-14T13:31:37.005Z,69.40
2018-05-14T13:34:06.389Z,69.20
2018-05-14T13:36:35.850Z,69.60
2018-05-14T13:39:06.344Z,70.30
2018-05-14T13:41:35.744Z,69.60
2018-05-14T13:44:04.956Z,70.00
2018-05-14T13:46:34.648Z,70.10
2018-05-14T13:49:04.233Z,70.10
2018-05-14T13:51:34.001Z,69.90
2018-05-14T13:54:03.610Z,70.00
2018-05-14T13:56:33.184Z,69.20
2018-05-14T13:59:03.415Z,69.40
2018-05-14T14:01:33.206Z,69.60
2018-05-14T14:04:03.817Z,69.70
2018-05-14T14:06:34.180Z,70.60
2018-05-14T14:09:03.657Z,69.90
2018-05-14T14:11:33.220Z,69.70
2018-05-14T14:14:03.401Z,70.50
2018-05-14T14:16:32.631Z,71.30
2018-05-14T14:19:03.024Z,69.10
2018-05-14T14:21:32.584Z,69.10
2018-05-14T14:24:02.959Z,69.20
2018-05-14T14:26:33.796Z,69.00
2018-05-14T14:29:05.014Z,64.40
2018-05-14T14:31:35.012Z,64.30
2018-05-14T14:34:04.912Z,63.40
2018-05-14T14:36:34.602Z,63.90
2018-05-14T14:39:05.545Z,63.30
2018-05-14T14:41:36.480Z,62.50
2018-05-14T14:44:07.100Z,60.10
2018-05-14T14:46:36.702Z,58.80
2018-05-14T14:49:06.402Z,57.90
2018-05-14T14:51:36.044Z,57.10
2018-05-14T14:57:29.324Z,57.20
2018-05-14T14:59:59.173Z,56.40
2018-05-14T15:05:10.676Z,55.60
2018-05-14T15:07:40.102Z,55.60
2018-05-14T15:10:09.918Z,55.40
2018-05-14T15:12:39.254Z,55.40
2018-05-14T15:15:09.978Z,54.50
2018-05-14T15:17:39.640Z,54.30
2018-05-14T15:20:09.485Z,53.70
2018-05-14T15:22:38.950Z,53.30
2018-05-14T15:25:08.641Z,52.10
2018-05-14T15:27:39.113Z,52.10
2018-05-14T15:30:08.861Z,52.90
2018-05-14T15:32:38.901Z,51.60
2018-05-14T15:35:08.241Z,51.70
2018-05-14T15:37:37.865Z,51.30
2018-05-14T15:40:07.838Z,51.10
2018-05-14T15:42:37.428Z,51.30
2018-05-14T15:45:06.990Z,50.40
2018-05-14T15:47:37.532Z,48.90
2018-05-14T15:50:09.634Z,48.10
2018-05-14T15:52:39.735Z,48.40
2018-05-14T15:55:10.981Z,48.70
2018-05-14T15:57:40.381Z,48.70
2018-05-14T16:00:09.692Z,47.00
2018-05-14T16:02:39.248Z,46.40
2018-05-14T16:05:09.380Z,45.20
2018-05-14T16:07:40.296Z,46.40
2018-05-14T16:10:10.066Z,45.30
2018-05-14T16:12:39.459Z,45.90
2018-05-14T16:15:10.288Z,46.10
2018-05-14T16:17:40.244Z,44.90
2018-05-14T16:20:09.604Z,44.30
2018-05-14T16:22:39.915Z,43.60
2018-05-14T16:25:09.604Z,43.00
2018-05-14T16:27:38.972Z,42.40
2018-05-14T16:30:08.789Z,42.20
2018-05-14T16:32:38.370Z,40.70
2018-05-14T16:35:08.653Z,41.10
2018-05-14T16:37:38.380Z,41.10
2018-05-14T16:40:07.877Z,40.20
2018-05-14T16:42:37.512Z,38.80
2018-05-14T16:45:07.490Z,37.50
2018-05-14T16:47:36.905Z,39.10
2018-05-14T16:50:06.490Z,38.40
2018-05-14T16:52:35.909Z,38.40
2018-05-14T16:55:05.513Z,37.70
2018-05-14T16:57:35.183Z,37.70
2018-05-14T17:00:04.843Z,38.40
2018-05-14T17:02:34.765Z,38.40
2018-05-14T17:05:04.779Z,38.00
2018-05-14T17:07:34.707Z,38.10
2018-05-14T17:10:04.434Z,37.00
2018-05-14T17:12:33.840Z,36.10
2018-05-14T17:15:04.521Z,34.20
2018-05-14T17:17:33.982Z,34.10
2018-05-14T17:20:04.077Z,32.80
2018-05-14T17:22:33.819Z,27.70
2018-05-14T17:25:03.800Z,20.90
2018-05-14T17:27:33.107Z,20.80
2018-05-14T17:30:03.667Z,18.40
2018-05-14T17:32:33.252Z,16.70
2018-05-14T17:35:02.734Z,15.70
2018-05-14T17:37:32.189Z,13.80
2018-05-14T17:40:02.008Z,12.90
2018-05-14T17:42:32.962Z,12.90
2018-05-14T17:45:02.336Z,12.30
2018-05-14T17:47:32.835Z,12.50
2018-05-14T17:50:02.297Z,12.00
2018-05-14T17:52:31.542Z,11.90
2018-05-14T17:55:01.060Z,11.60
2018-05-14T17:57:30.699Z,11.10
2018-05-14T18:00:00.992Z,11.10
2018-05-14T18:02:31.695Z,10.40
2018-05-14T18:05:01.428Z,10.30
2018-05-14T18:07:31.058Z,9.90
2018-05-14T18:10:01.324Z,10.10
2018-05-14T18:12:32.220Z,10.10
2018-05-14T18:15:02.224Z,10.00
2018-05-14T18:17:32.073Z,9.60
2018-05-14T18:20:07.346Z,10.10
2018-05-14T18:22:40.677Z,10.60
2018-05-14T18:25:15.582Z,10.60
2018-05-14T18:27:51.054Z,11.50
2018-05-14T18:30:26.583Z,10.60
2018-05-14T18:33:06.159Z,10.10
2018-05-14T18:35:38.343Z,10.10
2018-05-14T18:38:08.126Z,10.10
2018-05-14T18:40:38.488Z,10.10
2018-05-14T18:43:08.809Z,10.10
2018-05-14T18:45:38.711Z,9.60
2018-05-14T18:48:08.405Z,10.10
2018-05-14T18:50:37.917Z,10.90
2018-05-14T18:53:07.620Z,13.30
2018-05-14T18:55:37.244Z,14.60
2018-05-14T18:58:06.735Z,17.20
2018-05-14T19:00:36.752Z,18.60
2018-05-14T19:03:06.240Z,19.70
2018-05-14T19:05:35.905Z,21.00
2018-05-14T19:08:05.809Z,21.50
2018-05-14T19:10:41.161Z,21.10
2018-05-14T19:13:10.681Z,22.40
2018-05-14T19:15:46.024Z,21.90
2018-05-14T19:18:15.580Z,22.10
2018-05-14T19:20:44.941Z,22.20
2018-05-14T19:23:19.850Z,22.50
2018-05-14T19:25:49.705Z,22.20
2018-05-14T19:28:25.267Z,23.00
2018-05-14T19:30:54.616Z,23.10
2018-05-14T19:33:29.810Z,22.90
2018-05-14T19:36:02.156Z,23.70
2018-05-14T19:38:32.715Z,24.80
2018-05-14T19:41:02.281Z,24.70
2018-05-14T19:43:31.828Z,24.00
2018-05-14T19:46:01.280Z,24.70
2018-05-14T19:48:30.668Z,25.50
2018-05-14T19:51:00.513Z,26.20
2018-05-14T19:53:32.101Z,25.30
2018-05-14T19:56:02.339Z,25.80
2018-05-14T19:58:32.852Z,26.70
2018-05-14T20:01:03.479Z,26.90
2018-05-14T20:03:33.075Z,25.40
2018-05-14T20:06:04.868Z,26.60
2018-05-14T20:08:34.534Z,26.60
2018-05-14T20:11:04.599Z,26.50
2018-05-14T20:13:34.509Z,26.50
2018-05-14T20:16:03.980Z,26.90
2018-05-14T20:18:33.650Z,25.70
2018-05-14T20:21:03.341Z,26.70
2018-05-14T20:23:32.985Z,27.30
2018-05-14T20:26:02.445Z,27.10
2018-05-14T20:28:31.785Z,26.60
2018-05-14T20:31:03.200Z,27.40
2018-05-14T20:33:32.569Z,27.40
2018-05-14T20:36:02.678Z,29.00
2018-05-14T20:38:33.167Z,28.10
2018-05-14T20:41:02.818Z,28.10
2018-05-14T20:43:33.161Z,28.70
2018-05-14T20:46:02.592Z,28.70
2018-05-14T20:48:32.246Z,30.10
2018-05-14T20:51:02.430Z,29.90
2018-05-14T20:53:32.074Z,30.00
2018-05-14T20:56:02.785Z,29.70
2018-05-14T20:58:32.149Z,29.60
2018-05-14T21:01:02.173Z,30.20
2018-05-14T21:03:32.557Z,29.80
2018-05-14T21:06:02.156Z,29.80
2018-05-14T21:08:32.916Z,29.40
2018-05-14T21:11:02.701Z,28.30
2018-05-14T21:13:33.112Z,30.90
2018-05-14T21:16:03.775Z,30.90
2018-05-14T21:18:34.147Z,29.30
2018-05-14T21:21:04.036Z,30.00
2018-05-14T21:23:33.393Z,30.20
2018-05-14T21:26:03.558Z,29.80
2018-05-14T21:28:33.729Z,29.80
2018-05-14T21:31:03.965Z,29.10
2018-05-14T21:33:34.401Z,29.10
2018-05-14T21:36:04.783Z,29.60
2018-05-14T21:38:34.356Z,29.50
2018-05-14T21:41:03.630Z,31.30
2018-05-14T21:43:33.081Z,29.90
2018-05-14T21:46:02.692Z,30.00
2018-05-14T21:48:32.136Z,29.20
2018-05-14T21:51:01.983Z,30.60
2018-05-14T21:53:31.501Z,29.30
2018-05-14T21:56:02.221Z,29.40
2018-05-14T21:58:31.668Z,28.20
2018-05-14T22:01:01.373Z,29.00
2018-05-14T22:03:30.792Z,29.30
2018-05-14T22:06:00.426Z,29.20
2018-05-14T22:08:29.856Z,30.90
2018-05-14T22:10:58.933Z,31.90
2018-05-14T22:13:28.520Z,31.60
2018-05-14T22:15:58.526Z,29.40
2018-05-14T22:18:27.987Z,30.20
2018-05-14T22:20:57.384Z,31.50
2018-05-14T22:23:26.872Z,29.60
2018-05-14T22:25:56.326Z,30.00
2018-05-14T22:28:25.972Z,29.00
2018-05-14T22:30:55.508Z,29.50
2018-05-14T22:33:24.857Z,30.70
2018-05-14T22:35:54.420Z,31.10
2018-05-14T22:38:23.718Z,30.40
2018-05-14T22:40:53.332Z,30.00
2018-05-14T22:43:22.873Z,30.90
2018-05-14T22:45:52.320Z,32.00
2018-05-14T22:48:21.760Z,30.90
2018-05-14T22:50:52.241Z,29.90
2018-05-14T22:53:21.789Z,29.70
2018-05-14T22:55:51.352Z,30.70
2018-05-14T22:58:22.274Z,31.40
2018-05-14T23:00:52.605Z,30.90
2018-05-14T23:03:22.251Z,30.80
2018-05-14T23:05:51.871Z,30.00
2018-05-14T23:08:21.652Z,30.50
2018-05-14T23:10:51.212Z,30.00
2018-05-14T23:13:21.522Z,29.80
2018-05-14T23:15:51.831Z,32.10
2018-05-14T23:18:21.581Z,32.20
2018-05-14T23:20:52.410Z,29.40
2018-05-14T23:23:21.868Z,29.40
2018-05-14T23:25:51.679Z,30.00
2018-05-14T23:28:21.446Z,30.00
2018-05-14T23:30:51.586Z,31.60
2018-05-14T23:33:22.565Z,29.10
2018-05-14T23:35:51.872Z,29.50
2018-05-14T23:38:22.043Z,30.30
2018-05-14T23:40:51.618Z,30.00
2018-05-14T23:43:21.815Z,31.20
2018-05-14T23:45:52.247Z,31.80
2018-05-14T23:48:22.224Z,30.00
2018-05-14T23:50:51.775Z,30.00
2018-05-14T23:53:22.575Z,31.20
2018-05-14T23:55:59.051Z,32.90
2018-05-14T23:58:29.606Z,31.30
